Sagle, Idaho
Current Conditions -  °F | °C
As of 8:35 AM on Saturday 22 Nov 2014 (Local Time) from KSZT Reporting Station
Overcast Overcast  
Wind Chill: 28°   Ceiling: 2900
Heat Index: 36°   Visibility: 10mi
Dew Point: 32°   Wind: 10mph
Humidity: 87%   Direction: 240°WSW
Pressure: 29.56"   Gusts: 20mph
Location:  48.2°N, 116.55°W
Report Text: KSZT 221635Z AUTO 24009G17KT 10SM BKN029 OVC033 02/00 A2956 RMK AO2
Loading
Personal Weather Stations






























Interactive Weather Map New forecast layout! Learn more

10-Day Weather Forecast

Advertisements
Track Severe Weather on mobile